Lynchburg, Missouri
Current Conditions -  °F | °C
As of 12:58 PM on Thursday 23 Oct 2014 (Local Time) from KTBN Reporting Station
Broken Clouds Broken Clouds  
Wind Chill: 59°   Ceiling: 8000
Heat Index: 59°   Visibility: 10mi
Dew Point: 49°   Wind: 3mph
Humidity: 68%   Direction: NA
Pressure: 30.17"   Gusts: NA
Location:  37.49°N, 92.29°W
Report Text: KTBN 231758Z AUTO VRB03KT 10SM FEW033 SCT060 BKN080 BKN090 15/09 A3017 RMK AO2 DZB1734E1754 SLP219 P0000 60000 T01510093 10161 20061 57008
Loading
Personal Weather Stations






























Interactive Weather Map
Tropical Storm Tracking
New forecast layout! Learn more

10-Day Weather Forecast

Advertisements
Track Severe Weather on mobile